createdAt,value
2017-09-25T03:03:54.393Z,18.83
2017-09-25T03:06:28.535Z,21.00
2017-09-25T03:08:58.898Z,21.33
2017-09-25T03:11:29.988Z,18.77
2017-09-25T03:14:00.451Z,20.08
2017-09-25T03:16:32.774Z,19.27
2017-09-25T03:19:02.652Z,19.00
2017-09-25T03:21:33.709Z,18.70
2017-09-25T03:24:03.853Z,20.37
2017-09-25T03:26:34.304Z,19.37
2017-09-25T03:29:06.512Z,21.90
2017-09-25T03:31:36.731Z,18.65
2017-09-25T03:34:08.764Z,19.87
2017-09-25T03:36:39.073Z,19.30
2017-09-25T03:39:09.738Z,17.25
2017-09-25T03:41:39.629Z,17.42
2017-09-25T03:44:10.912Z,18.00
2017-09-25T03:46:41.488Z,20.62
2017-09-25T03:49:12.352Z,19.80
2017-09-25T03:51:42.671Z,18.73
2017-09-25T03:54:15.486Z,19.02
2017-09-25T03:56:48.079Z,20.35
2017-09-25T03:59:19.102Z,19.67
2017-09-25T04:01:50.965Z,19.40
2017-09-25T04:04:21.852Z,19.33
2017-09-25T04:06:53.575Z,20.00
2017-09-25T04:09:24.684Z,20.27
2017-09-25T04:11:56.068Z,22.17
2017-09-25T04:14:28.553Z,21.50
2017-09-25T04:16:59.527Z,19.58
2017-09-25T04:19:31.113Z,19.60
2017-09-25T04:22:02.430Z,21.50
2017-09-25T04:24:37.603Z,21.33
2017-09-25T04:27:11.818Z,19.95
2017-09-25T04:29:43.001Z,19.25
2017-09-25T04:32:14.612Z,18.42
2017-09-25T04:34:45.197Z,19.30
2017-09-25T04:39:58.090Z,23.40
2017-09-25T04:42:30.755Z,20.42
2017-09-25T04:45:03.102Z,20.92
2017-09-25T04:47:34.114Z,19.95
2017-09-25T04:50:05.589Z,20.02
2017-09-25T04:52:37.674Z,19.67
2017-09-25T04:55:10.300Z,21.52
2017-09-25T04:57:42.432Z,21.80
2017-09-25T05:00:15.528Z,24.80
2017-09-25T05:02:47.196Z,20.15
2017-09-25T05:05:19.243Z,21.98
2017-09-25T05:07:50.564Z,21.40
2017-09-25T05:10:29.025Z,23.42
2017-09-25T05:13:00.420Z,20.65
2017-09-25T05:15:30.056Z,21.98
2017-09-25T05:18:02.225Z,25.67
2017-09-25T05:20:33.629Z,20.83
2017-09-25T05:23:05.013Z,23.05
2017-09-25T05:25:37.212Z,20.73
2017-09-25T05:28:11.058Z,21.30
2017-09-25T05:30:42.793Z,20.88
2017-09-25T05:33:14.967Z,20.98
2017-09-25T05:35:47.405Z,22.13
2017-09-25T05:38:19.551Z,22.37
2017-09-25T05:40:52.336Z,27.25
2017-09-25T05:43:24.656Z,21.80
2017-09-25T05:45:55.909Z,21.02
2017-09-25T05:48:31.153Z,22.65
2017-09-25T05:51:02.037Z,23.08
2017-09-25T05:53:33.281Z,22.15
2017-09-25T05:56:03.958Z,21.83
2017-09-25T05:58:35.839Z,22.42
2017-09-25T06:01:09.484Z,27.35
2017-09-25T06:03:41.025Z,20.30
2017-09-25T06:06:13.449Z,23.10
2017-09-25T06:08:44.871Z,22.92
2017-09-25T06:11:18.556Z,23.10
2017-09-25T06:13:51.947Z,23.33
2017-09-25T06:16:24.614Z,22.77
2017-09-25T06:18:56.885Z,24.90
2017-09-25T06:21:30.828Z,23.20
2017-09-25T06:24:02.945Z,25.58
2017-09-25T06:26:34.588Z,22.58
2017-09-25T06:29:08.804Z,22.70
2017-09-25T06:31:40.100Z,20.42
2017-09-25T06:34:12.201Z,21.70
2017-09-25T06:36:43.489Z,20.80
2017-09-25T06:39:14.609Z,25.67
2017-09-25T06:41:48.769Z,26.25
2017-09-25T06:44:19.002Z,22.80
2017-09-25T06:46:51.356Z,22.02
2017-09-25T06:49:22.597Z,23.98
2017-09-25T06:51:55.194Z,31.17
2017-09-25T06:57:02.711Z,26.08
2017-09-25T06:59:35.396Z,26.95
2017-09-25T07:02:07.247Z,28.65
2017-09-25T07:04:38.335Z,37.58
2017-09-25T07:07:10.318Z,25.60
2017-09-25T07:09:41.897Z,30.67
2017-09-25T07:12:12.241Z,31.15
2017-09-25T07:14:42.417Z,28.95
2017-09-25T07:17:13.680Z,29.70
2017-09-25T07:19:46.588Z,28.62
2017-09-25T07:22:18.660Z,28.35
2017-09-25T07:24:50.604Z,31.67
2017-09-25T07:27:24.188Z,29.98
2017-09-25T07:29:55.612Z,29.73
2017-09-25T07:32:30.315Z,38.15
2017-09-25T07:35:01.925Z,27.62
2017-09-25T07:37:32.767Z,29.33
2017-09-25T07:40:04.055Z,28.62
2017-09-25T07:42:35.772Z,29.77
2017-09-25T07:45:06.202Z,28.12
2017-09-25T07:47:38.764Z,28.90
2017-09-25T07:50:10.642Z,28.42
2017-09-25T07:52:43.708Z,31.25
2017-09-25T07:55:15.592Z,30.58
2017-09-25T07:57:47.185Z,29.60
2017-09-25T08:00:19.219Z,27.98
2017-09-25T08:02:50.870Z,29.90
2017-09-25T08:05:22.054Z,28.20
2017-09-25T08:07:54.305Z,29.27
2017-09-25T08:10:27.101Z,28.12
2017-09-25T08:12:56.312Z,26.58
2017-09-25T08:15:27.812Z,28.12
2017-09-25T08:17:57.716Z,28.98
2017-09-25T08:20:28.288Z,29.40
2017-09-25T08:23:00.535Z,35.30
2017-09-25T08:25:32.132Z,33.63
2017-09-25T08:28:03.557Z,41.20
2017-09-25T08:30:35.702Z,37.25
2017-09-25T08:33:06.120Z,34.80
2017-09-25T08:35:38.509Z,38.30
2017-09-25T08:38:10.848Z,33.20
2017-09-25T08:40:41.612Z,33.97
2017-09-25T08:43:13.845Z,33.42
2017-09-25T08:45:45.407Z,36.60
2017-09-25T08:48:15.749Z,34.20
2017-09-25T08:50:47.238Z,31.77
2017-09-25T08:53:18.633Z,28.58
2017-09-25T08:55:50.944Z,25.30
2017-09-25T08:58:22.320Z,24.48
2017-09-25T09:00:54.613Z,22.00
2017-09-25T09:03:25.333Z,22.45
2017-09-25T09:05:55.912Z,17.08
2017-09-25T09:08:26.337Z,20.08
2017-09-25T09:10:57.106Z,22.13
2017-09-25T09:13:28.705Z,15.30
2017-09-25T09:16:00.445Z,15.07
2017-09-25T09:18:31.968Z,13.95
2017-09-25T09:21:03.648Z,15.35
2017-09-25T09:23:34.771Z,12.40
2017-09-25T09:26:06.033Z,11.90
2017-09-25T09:28:36.178Z,13.60
2017-09-25T09:31:07.259Z,14.23
2017-09-25T09:33:37.601Z,12.50
2017-09-25T09:36:10.261Z,11.52
2017-09-25T09:38:41.674Z,12.00
2017-09-25T09:41:12.773Z,12.98
2017-09-25T09:43:44.104Z,12.20
2017-09-25T09:46:16.394Z,13.98
2017-09-25T09:48:47.437Z,14.70
2017-09-25T09:51:19.009Z,12.85
2017-09-25T09:53:49.816Z,12.05
2017-09-25T09:56:21.132Z,12.40
2017-09-25T09:58:53.712Z,12.05
2017-09-25T10:01:26.443Z,10.38
2017-09-25T10:03:58.511Z,9.70
2017-09-25T10:06:28.882Z,10.55
2017-09-25T10:09:00.105Z,15.00
2017-09-25T10:11:31.922Z,12.82
2017-09-25T10:14:03.737Z,12.18
2017-09-25T10:16:34.744Z,10.48
2017-09-25T10:19:04.013Z,10.48
2017-09-25T10:21:34.784Z,9.63
2017-09-25T10:24:05.950Z,10.13
2017-09-25T10:26:35.848Z,8.93
2017-09-25T10:29:06.243Z,9.52
2017-09-25T10:31:37.590Z,8.90
2017-09-25T10:34:08.385Z,8.55
2017-09-25T10:36:38.769Z,8.07
2017-09-25T10:39:09.612Z,7.53
2017-09-25T10:41:42.785Z,9.02
2017-09-25T10:44:14.902Z,8.68
2017-09-25T10:46:45.597Z,8.43
2017-09-25T10:49:18.087Z,7.80
2017-09-25T10:51:48.080Z,6.18
2017-09-25T10:54:18.473Z,6.90
2017-09-25T10:56:47.728Z,7.25
2017-09-25T10:59:18.689Z,6.47
2017-09-25T11:01:48.985Z,6.00
2017-09-25T11:04:17.850Z,6.18
2017-09-25T11:06:48.137Z,5.80
2017-09-25T11:09:19.891Z,6.25
2017-09-25T11:11:51.982Z,5.78
2017-09-25T11:14:22.597Z,5.50
2017-09-25T11:16:54.763Z,6.05
2017-09-25T11:19:25.446Z,5.50
2017-09-25T11:21:56.476Z,12.68
2017-09-25T11:24:26.985Z,5.93
2017-09-25T11:27:00.636Z,5.90
2017-09-25T11:29:30.829Z,6.57
2017-09-25T11:32:01.491Z,6.65
2017-09-25T11:34:32.453Z,6.55
2017-09-25T11:37:04.060Z,6.47
2017-09-25T11:39:35.530Z,6.55
2017-09-25T11:42:06.989Z,7.65
2017-09-25T11:44:35.341Z,9.73
2017-09-25T11:47:06.663Z,7.68
2017-09-25T11:49:36.988Z,6.37
2017-09-25T11:52:07.151Z,6.72
2017-09-25T11:54:38.457Z,6.90
2017-09-25T11:57:10.941Z,8.35
2017-09-25T11:59:40.559Z,8.13
2017-09-25T12:02:09.476Z,7.55
2017-09-25T12:04:40.761Z,7.18
2017-09-25T12:07:12.909Z,5.43
2017-09-25T12:09:43.288Z,7.65
2017-09-25T12:12:14.230Z,6.90
2017-09-25T12:14:45.680Z,6.70
2017-09-25T12:17:16.841Z,7.28
2017-09-25T12:19:47.312Z,6.20
2017-09-25T12:22:17.781Z,7.25
2017-09-25T12:24:48.404Z,7.40
2017-09-25T12:27:19.073Z,7.20
2017-09-25T12:29:48.925Z,8.13
2017-09-25T12:32:19.145Z,9.55
2017-09-25T12:34:50.316Z,7.28
2017-09-25T12:37:20.034Z,7.40
2017-09-25T12:39:50.183Z,8.73
2017-09-25T12:42:21.895Z,9.00
2017-09-25T12:44:53.206Z,7.80
2017-09-25T12:47:25.008Z,7.87
2017-09-25T12:49:57.692Z,7.90
2017-09-25T12:52:30.185Z,7.78
2017-09-25T12:55:03.154Z,6.57
2017-09-25T12:57:36.781Z,7.97
2017-09-25T13:00:06.384Z,6.80
2017-09-25T13:02:37.106Z,7.77
2017-09-25T13:05:08.737Z,7.57
2017-09-25T13:07:39.121Z,7.23
2017-09-25T13:10:10.617Z,7.63
2017-09-25T13:12:40.858Z,6.93
2017-09-25T13:15:13.106Z,9.98
2017-09-25T13:17:45.914Z,8.38
2017-09-25T13:20:17.606Z,6.30
2017-09-25T13:22:52.804Z,7.20
2017-09-25T13:25:25.599Z,7.82
2017-09-25T13:28:06.295Z,7.20
2017-09-25T13:30:36.733Z,7.45
2017-09-25T13:33:08.413Z,8.83
2017-09-25T13:35:39.529Z,7.57
2017-09-25T13:38:09.668Z,10.10
2017-09-25T13:40:39.817Z,8.25
2017-09-25T13:43:09.925Z,8.40
2017-09-25T13:45:40.737Z,7.40
2017-09-25T13:48:09.648Z,8.40
2017-09-25T13:50:38.954Z,6.97
2017-09-25T13:53:10.400Z,7.30
2017-09-25T13:55:40.845Z,7.43
2017-09-25T13:58:11.963Z,7.07
2017-09-25T14:03:18.574Z,7.33
2017-09-25T14:05:47.921Z,6.00
2017-09-25T14:08:18.928Z,8.10
2017-09-25T14:10:50.568Z,6.80
2017-09-25T14:13:21.877Z,6.20
2017-09-25T14:15:50.436Z,7.35
2017-09-25T14:18:21.016Z,7.80
2017-09-25T14:20:50.359Z,7.25
2017-09-25T14:23:20.287Z,7.40
2017-09-25T14:25:49.732Z,7.80
2017-09-25T14:28:20.750Z,7.85
2017-09-25T14:30:52.237Z,6.60
2017-09-25T14:33:21.608Z,7.35
2017-09-25T14:35:50.855Z,7.87
2017-09-25T14:38:22.477Z,7.37
2017-09-25T14:40:53.225Z,6.85
2017-09-25T14:43:24.512Z,6.90
2017-09-25T14:45:55.876Z,8.05
2017-09-25T14:48:25.725Z,7.00
2017-09-25T14:50:57.602Z,6.72
2017-09-25T14:53:28.124Z,6.45
2017-09-25T14:55:58.186Z,8.57
2017-09-25T14:58:29.287Z,6.72
2017-09-25T15:00:59.861Z,6.85
2017-09-25T15:03:30.679Z,7.85
2017-09-25T15:06:01.581Z,7.62
2017-09-25T15:08:32.605Z,10.35
2017-09-25T15:11:03.805Z,8.05
2017-09-25T15:13:34.722Z,7.80
2017-09-25T15:16:05.478Z,8.63
2017-09-25T15:18:35.612Z,7.60
2017-09-25T15:21:05.286Z,7.37
2017-09-25T15:23:34.660Z,6.80
2017-09-25T15:26:04.840Z,8.40
2017-09-25T15:28:35.017Z,6.93
2017-09-25T15:31:04.466Z,8.90
2017-09-25T15:33:35.505Z,7.30
2017-09-25T15:36:07.753Z,6.95
2017-09-25T15:38:39.092Z,6.65
2017-09-25T15:41:11.336Z,7.35
2017-09-25T15:43:42.137Z,6.60
2017-09-25T15:46:13.109Z,7.32
2017-09-25T15:48:44.762Z,7.32
2017-09-25T15:51:15.969Z,6.93
2017-09-25T15:53:46.554Z,6.45
2017-09-25T15:56:16.830Z,6.95
2017-09-25T15:58:47.977Z,7.07
2017-09-25T16:01:17.055Z,6.37
2017-09-25T16:03:47.628Z,6.97
2017-09-25T16:06:17.369Z,6.80
2017-09-25T16:08:48.686Z,6.20
2017-09-25T16:11:19.220Z,7.28
2017-09-25T16:13:49.179Z,7.32
2017-09-25T16:16:18.937Z,7.32
2017-09-25T16:19:13.444Z,6.87
2017-09-25T16:22:12.534Z,8.60
2017-09-25T16:24:46.735Z,6.95
2017-09-25T16:27:14.878Z,7.40
2017-09-25T16:29:43.054Z,7.43
2017-09-25T16:32:11.201Z,7.95
2017-09-25T16:34:39.419Z,6.82
2017-09-25T16:37:08.331Z,7.78
2017-09-25T16:39:36.469Z,7.95
2017-09-25T16:42:04.653Z,8.15
2017-09-25T16:44:32.825Z,7.62
2017-09-25T16:47:01.787Z,7.70
2017-09-25T16:49:29.969Z,7.07
2017-09-25T16:51:58.258Z,6.90
2017-09-25T16:54:26.406Z,7.70
2017-09-25T16:56:54.993Z,7.72
2017-09-25T16:59:23.197Z,8.18
2017-09-25T17:01:52.131Z,8.13
2017-09-25T17:04:20.344Z,7.62
2017-09-25T17:06:48.549Z,7.87
2017-09-25T17:09:16.813Z,9.18
2017-09-25T17:11:44.956Z,8.60
2017-09-25T17:14:13.113Z,6.53
2017-09-25T17:16:41.285Z,8.05
2017-09-25T17:19:09.503Z,8.38
2017-09-25T17:21:37.676Z,7.87
2017-09-25T17:24:05.872Z,8.23
2017-09-25T17:26:34.804Z,7.85
2017-09-25T17:29:02.965Z,7.87
2017-09-25T17:31:31.145Z,9.27
2017-09-25T17:33:59.308Z,9.95
2017-09-25T17:36:27.583Z,9.93
2017-09-25T17:38:55.722Z,8.73
2017-09-25T17:41:24.630Z,10.10
2017-09-25T17:43:52.802Z,9.40
2017-09-25T17:46:20.948Z,11.07
2017-09-25T17:48:49.157Z,12.60
2017-09-25T17:51:17.292Z,9.77
2017-09-25T17:53:45.578Z,17.42
2017-09-25T17:56:21.453Z,10.25
2017-09-25T17:58:50.413Z,10.95
2017-09-25T18:01:18.571Z,10.93
2017-09-25T18:03:46.737Z,11.27
2017-09-25T18:06:14.920Z,12.48
2017-09-25T18:08:43.088Z,14.75
2017-09-25T18:11:11.373Z,14.10
2017-09-25T18:13:39.897Z,11.77
2017-09-25T18:16:08.098Z,11.23
2017-09-25T18:18:36.262Z,11.20
2017-09-25T18:21:04.436Z,12.35
2017-09-25T18:23:33.776Z,12.10
2017-09-25T18:26:01.923Z,12.37
2017-09-25T18:28:30.076Z,11.52
2017-09-25T18:30:58.234Z,10.82
2017-09-25T18:33:27.299Z,11.23
2017-09-25T18:35:55.467Z,12.25
2017-09-25T18:38:23.666Z,11.60
2017-09-25T18:40:52.602Z,12.23
2017-09-25T18:43:20.801Z,11.38
2017-09-25T18:45:49.049Z,10.32
2017-09-25T18:48:17.244Z,10.23
2017-09-25T18:50:45.498Z,9.60
2017-09-25T18:53:13.668Z,10.82
2017-09-25T18:55:41.868Z,11.52
2017-09-25T18:58:10.122Z,10.52
2017-09-25T19:00:38.484Z,10.43
2017-09-25T19:03:06.623Z,10.77
2017-09-25T19:05:34.806Z,10.43
2017-09-25T19:08:03.209Z,11.30
2017-09-25T19:10:31.356Z,10.73
2017-09-25T19:13:00.297Z,11.85
2017-09-25T19:15:36.200Z,11.23
2017-09-25T19:18:12.027Z,10.32
2017-09-25T19:20:40.421Z,10.52
2017-09-25T19:23:08.576Z,9.93
2017-09-25T19:25:36.748Z,11.60
2017-09-25T19:28:04.887Z,11.45
2017-09-25T19:30:33.114Z,10.38
2017-09-25T19:33:04.492Z,10.35
2017-09-25T19:35:33.870Z,8.98
2017-09-25T19:38:02.059Z,8.88
2017-09-25T19:40:31.125Z,9.05
2017-09-25T19:42:59.380Z,11.05
2017-09-25T19:45:27.542Z,8.90
2017-09-25T19:47:56.525Z,9.80
2017-09-25T19:50:24.928Z,11.07
2017-09-25T19:52:53.140Z,9.57
2017-09-25T19:55:21.305Z,11.20
2017-09-25T19:57:49.469Z,11.00
2017-09-25T20:00:17.659Z,10.48
2017-09-25T20:02:45.859Z,10.80
2017-09-25T20:05:14.768Z,11.32
2017-09-25T20:07:42.932Z,10.00
2017-09-25T20:10:11.892Z,10.30
2017-09-25T20:12:40.826Z,10.98
2017-09-25T20:15:09.056Z,11.48
2017-09-25T20:17:37.216Z,11.05
2017-09-25T20:20:05.371Z,11.23
2017-09-25T20:22:33.550Z,10.40
2017-09-25T20:25:01.696Z,11.10
2017-09-25T20:27:29.878Z,10.38
2017-09-25T20:29:58.044Z,10.75
2017-09-25T20:32:26.250Z,10.43
2017-09-25T20:34:54.412Z,10.57
2017-09-25T20:37:22.604Z,10.30
2017-09-25T20:39:50.789Z,11.90
2017-09-25T20:42:18.935Z,9.55
2017-09-25T20:44:47.124Z,10.48
2017-09-25T20:47:15.270Z,11.88
2017-09-25T20:49:43.565Z,11.18
2017-09-25T20:52:11.709Z,11.48
2017-09-25T20:54:39.902Z,11.57
2017-09-25T20:57:08.057Z,10.68
2017-09-25T20:59:36.237Z,11.85
2017-09-25T21:02:04.410Z,10.77
2017-09-25T21:04:32.559Z,10.52
2017-09-25T21:07:00.706Z,10.48
2017-09-25T21:09:28.852Z,11.65
2017-09-25T21:11:57.020Z,10.95
2017-09-25T21:14:25.178Z,10.88
2017-09-25T21:16:53.388Z,11.10
2017-09-25T21:19:21.529Z,11.07
2017-09-25T21:21:49.815Z,11.82
2017-09-25T21:24:17.962Z,11.27
2017-09-25T21:26:46.130Z,11.43
2017-09-25T21:29:14.330Z,17.05
2017-09-25T21:31:42.468Z,10.82
2017-09-25T21:34:10.649Z,12.30
2017-09-25T21:36:38.800Z,12.10
2017-09-25T21:39:07.754Z,11.68
2017-09-25T21:41:35.907Z,13.30
2017-09-25T21:44:04.056Z,11.95
2017-09-25T21:46:32.239Z,12.57
2017-09-25T21:49:00.424Z,11.60
2017-09-25T21:51:28.572Z,12.43
2017-09-25T21:53:56.731Z,12.88
2017-09-25T21:56:25.014Z,12.32
2017-09-25T21:58:53.176Z,11.90
2017-09-25T22:01:22.093Z,12.63
2017-09-25T22:03:50.272Z,12.20
2017-09-25T22:06:18.429Z,12.30
2017-09-25T22:08:46.583Z,13.82
2017-09-25T22:11:15.656Z,13.77
2017-09-25T22:13:43.845Z,14.10
2017-09-25T22:16:12.039Z,12.85
2017-09-25T22:18:40.196Z,12.18
2017-09-25T22:21:08.401Z,13.88
2017-09-25T22:23:37.309Z,13.30
2017-09-25T22:26:05.489Z,14.05
2017-09-25T22:28:33.638Z,13.75
2017-09-25T22:31:01.933Z,13.80
2017-09-25T22:33:30.108Z,13.10
2017-09-25T22:35:58.270Z,13.43
2017-09-25T22:38:26.462Z,13.30
2017-09-25T22:40:54.597Z,13.82
2017-09-25T22:43:23.545Z,12.68
2017-09-25T22:45:51.697Z,12.48
2017-09-25T22:48:19.996Z,14.00
2017-09-25T22:50:48.141Z,12.60
2017-09-25T22:53:16.333Z,14.15
2017-09-25T22:55:44.481Z,13.40
2017-09-25T22:58:12.640Z,13.45
2017-09-25T23:00:40.820Z,14.05
2017-09-25T23:03:09.956Z,13.62
2017-09-25T23:05:38.244Z,13.52
2017-09-25T23:08:06.436Z,14.65
2017-09-25T23:10:34.656Z,13.25
2017-09-25T23:13:02.789Z,13.55
2017-09-25T23:15:31.739Z,16.25
2017-09-25T23:17:59.909Z,14.20
2017-09-25T23:20:28.210Z,15.05
2017-09-25T23:22:56.352Z,15.35
2017-09-25T23:25:24.516Z,14.48
2017-09-25T23:27:52.689Z,15.15
2017-09-25T23:30:20.837Z,15.38
2017-09-25T23:32:49.899Z,14.25
2017-09-25T23:35:18.055Z,15.10
2017-09-25T23:37:46.270Z,14.95
2017-09-25T23:40:15.198Z,15.07
2017-09-25T23:42:43.352Z,15.63
2017-09-25T23:45:12.290Z,14.10
2017-09-25T23:47:40.441Z,15.13
2017-09-25T23:50:08.747Z,14.98
2017-09-25T23:52:36.936Z,14.55
2017-09-25T23:55:05.146Z,15.30
2017-09-25T23:57:33.296Z,14.95
